»·PEaware :: N915TB KRDD-KSAN

N915TB :: KRDD-KSAN

FLIGHT INFORMATION

Flight Status: Arrived
Operator: Privately registered:
United States
More flights under this callsign
Pilot: Jake M. (20491)
Aircraft: SOCATA TBM-900
(TBM9)
More flights by this aircraft type
Origin: KRDD Redding Mun
United States
Destination: KSAN San Diego Intl-Lindbergh
United States
More flights between these airports :: More routes between these airports
Route: +HOMAN2 RBL V332 FRA V459 SLI V597 MZB
File this flight plan on PilotEdge
Remarks:
Altitude:
(Current/Filed)
29,000ft
Speed:
(Current/Filed)
300kts
Departed: 13-Jan-20 04:42 PM
Arrived: 13-Jan-20 06:34 PM
Distance/Time
Traveled:
527nm/1:52
Distance/Time
To Go:
Arrived

Flight Plot

Page will automatically refresh every two minutes.

Flight plan parsing failed; only flown route is shown


Map Options




Map Legend


Flown Route
Filed Route
Departure Airport
Arrival Airport
Navaid (VOR, NDB)
Fix

Horizontal Profiles

Position Reports

Time Latitude Longitude Heading Altitude Ground
Speed
13-Jan-20 16:25 40.510365 -122.300433 0 495ft 0kts
13-Jan-20 16:26 40.510365 -122.300433 0 495ft 0kts
13-Jan-20 16:27 40.510365 -122.300433 0 495ft 0kts
13-Jan-20 16:28 40.510365 -122.300433 0 495ft 0kts
13-Jan-20 16:29 40.510365 -122.300433 0 495ft 0kts
13-Jan-20 16:30 40.510365 -122.300433 0 495ft 0kts
13-Jan-20 16:31 40.510365 -122.300433 0 495ft 0kts
13-Jan-20 16:32 40.510365 -122.300433 0 495ft 0kts
13-Jan-20 16:33 40.510365 -122.300433 360 495ft 0kts
13-Jan-20 16:34 40.510865 -122.300302 21 496ft 4kts
13-Jan-20 16:35 40.510953 -122.299481 90 496ft 0kts
13-Jan-20 16:36 40.510952 -122.299365 90 496ft 0kts
13-Jan-20 16:37 40.510953 -122.298824 79 496ft 7kts
13-Jan-20 16:38 40.513983 -122.298265 5 498ft 17kts
13-Jan-20 16:39 40.518401 -122.296274 0 502ft 13kts
13-Jan-20 16:40 40.520250 -122.295500 90 502ft 7kts
13-Jan-20 16:41 40.503452 -122.294137 168 1065ft 110kts
13-Jan-20 16:42 40.481206 -122.254535 124 3019ft 132kts
13-Jan-20 16:43 40.456310 -122.218705 176 4985ft 135kts
13-Jan-20 16:44 40.417554 -122.220877 186 7137ft 141kts
13-Jan-20 16:45 40.377057 -122.222934 189 9213ft 151kts
13-Jan-20 16:46 40.332764 -122.224998 195 11165ft 169kts
13-Jan-20 16:47 40.284303 -122.227400 199 13201ft 178kts
13-Jan-20 16:48 40.234883 -122.229806 201 15357ft 180kts
13-Jan-20 16:49 40.184520 -122.232218 203 17478ft 183kts
13-Jan-20 16:50 40.133233 -122.234690 204 19540ft 187kts
13-Jan-20 16:51 40.079892 -122.216580 152 21364ft 250kts
13-Jan-20 16:52 40.026801 -122.156357 154 23070ft 257kts
13-Jan-20 16:53 39.971965 -122.095545 155 24797ft 261kts
13-Jan-20 16:54 39.915935 -122.033675 156 26359ft 268kts
13-Jan-20 16:55 39.858508 -121.970380 157 28097ft 272kts
13-Jan-20 16:56 39.798838 -121.905037 156 29108ft 302kts
13-Jan-20 16:57 39.729101 -121.828508 153 29101ft 347kts
13-Jan-20 16:58 39.652983 -121.745190 152 29101ft 365kts
13-Jan-20 16:59 39.574111 -121.659138 152 29144ft 372kts
13-Jan-20 17:00 39.494587 -121.572677 151 29182ft 375kts
13-Jan-20 17:01 39.414289 -121.485650 151 29183ft 377kts
13-Jan-20 17:03 39.333877 -121.398782 151 29184ft 377kts
13-Jan-20 17:04 39.253368 -121.312051 151 29167ft 377kts
13-Jan-20 17:05 39.172832 -121.225595 151 29169ft 375kts
13-Jan-20 17:06 39.092621 -121.139759 151 29160ft 374kts
13-Jan-20 17:07 39.012377 -121.054146 151 29150ft 374kts
13-Jan-20 17:08 38.932298 -120.968962 151 29181ft 373kts
13-Jan-20 17:09 38.852967 -120.884843 151 29221ft 372kts
13-Jan-20 17:10 38.772792 -120.800007 151 29222ft 373kts
13-Jan-20 17:11 38.689743 -120.723683 162 29225ft 360kts
13-Jan-20 17:12 38.602661 -120.660259 162 29225ft 360kts
13-Jan-20 17:13 38.515352 -120.596811 162 29226ft 360kts
13-Jan-20 17:14 38.427835 -120.533405 162 29227ft 360kts
13-Jan-20 17:15 38.340444 -120.470239 162 29228ft 360kts
13-Jan-20 17:16 38.253239 -120.407402 162 29229ft 360kts
13-Jan-20 17:17 38.167294 -120.345632 162 29225ft 360kts
13-Jan-20 17:18 38.079479 -120.282717 162 29214ft 357kts
13-Jan-20 17:19 37.992493 -120.220542 162 29210ft 356kts
13-Jan-20 17:20 37.905986 -120.158890 162 29180ft 357kts
13-Jan-20 17:21 37.820614 -120.098206 162 29180ft 356kts
13-Jan-20 17:21 37.748521 -120.047092 162 29195ft 356kts
13-Jan-20 17:23 37.647410 -119.975611 162 29183ft 356kts
13-Jan-20 17:24 37.560548 -119.914367 162 29184ft 356kts
13-Jan-20 17:24 37.488476 -119.863676 162 29185ft 356kts
13-Jan-20 17:26 37.387214 -119.792653 161 29186ft 357kts
13-Jan-20 17:26 37.314816 -119.741997 161 29187ft 357kts
13-Jan-20 17:27 37.228184 -119.681542 161 29205ft 356kts
13-Jan-20 17:29 37.127260 -119.611316 160 29253ft 355kts
13-Jan-20 17:29 37.053266 -119.570382 168 29263ft 347kts
13-Jan-20 17:30 36.963031 -119.526242 168 29263ft 347kts
13-Jan-20 17:32 36.857946 -119.474968 168 29262ft 347kts
13-Jan-20 17:32 36.782758 -119.438380 168 29263ft 347kts
13-Jan-20 17:33 36.692858 -119.394732 168 29263ft 347kts
13-Jan-20 17:34 36.603017 -119.351222 168 29264ft 346kts
13-Jan-20 17:35 36.513543 -119.308012 168 29251ft 344kts
13-Jan-20 17:36 36.424570 -119.265180 168 29252ft 343kts
13-Jan-20 17:37 36.335479 -119.222387 168 29253ft 343kts
13-Jan-20 17:38 36.246467 -119.179720 168 29254ft 343kts
13-Jan-20 17:39 36.157475 -119.137165 168 29255ft 343kts
13-Jan-20 17:40 36.068044 -119.094508 168 29255ft 344kts
13-Jan-20 17:41 35.979140 -119.052315 166 29257ft 343kts
13-Jan-20 17:42 35.889765 -119.012159 171 29242ft 338kts
13-Jan-20 17:43 35.799221 -118.979144 171 29233ft 338kts
13-Jan-20 17:44 35.709508 -118.946384 171 29231ft 338kts
13-Jan-20 17:45 35.619049 -118.913439 171 29229ft 338kts
13-Jan-20 17:46 35.529085 -118.880744 171 29227ft 338kts
13-Jan-20 17:47 35.438438 -118.847745 170 29204ft 338kts
13-Jan-20 17:48 35.348161 -118.814929 170 29177ft 339kts
13-Jan-20 17:49 35.257996 -118.782231 170 29176ft 338kts
13-Jan-20 17:50 35.167536 -118.749600 170 29176ft 338kts
13-Jan-20 17:51 35.077337 -118.717550 170 29176ft 337kts
13-Jan-20 17:52 34.987318 -118.685464 170 29177ft 337kts
13-Jan-20 17:53 34.897009 -118.653179 170 29177ft 337kts
13-Jan-20 17:54 34.806714 -118.620977 169 29163ft 338kts
13-Jan-20 17:55 34.715977 -118.588666 169 29139ft 336kts
13-Jan-20 17:56 34.628031 -118.544693 159 28348ft 349kts
13-Jan-20 17:57 34.539855 -118.493041 158 27482ft 353kts
13-Jan-20 17:58 34.451359 -118.441302 158 26614ft 354kts
13-Jan-20 17:59 34.362308 -118.389374 159 25745ft 354kts
13-Jan-20 18:00 34.273677 -118.337815 159 24854ft 353kts
13-Jan-20 18:01 34.185327 -118.286534 159 24135ft 345kts
13-Jan-20 18:02 34.100382 -118.237387 159 23593ft 340kts
13-Jan-20 18:03 34.013981 -118.187472 159 22097ft 347kts
13-Jan-20 18:04 33.926360 -118.136963 158 20587ft 347kts
13-Jan-20 18:05 33.839762 -118.087171 158 19083ft 345kts
13-Jan-20 18:06 33.760346 -118.028045 137 17547ft 336kts
13-Jan-20 18:07 33.694573 -117.949794 138 16040ft 329kts
13-Jan-20 18:08 33.629543 -117.873056 138 14538ft 326kts
13-Jan-20 18:09 33.566993 -117.799404 138 14126ft 300kts
13-Jan-20 18:10 33.508557 -117.730720 138 14136ft 287kts
13-Jan-20 18:11 33.452077 -117.664478 138 14145ft 280kts
13-Jan-20 18:12 33.395438 -117.598252 138 13300ft 294kts
13-Jan-20 18:13 33.336180 -117.529035 137 11819ft 294kts
13-Jan-20 18:14 33.278988 -117.462394 137 10324ft 282kts
13-Jan-20 18:15 33.218076 -117.407952 162 8805ft 272kts
13-Jan-20 18:16 33.147213 -117.378350 161 7305ft 267kts
13-Jan-20 18:17 33.078507 -117.349453 161 6135ft 243kts
13-Jan-20 18:18 33.017618 -117.323904 161 6138ft 224kts
13-Jan-20 18:19 32.958630 -117.299176 161 6137ft 224kts
13-Jan-20 18:20 32.899921 -117.274588 161 6136ft 224kts
13-Jan-20 18:21 32.840855 -117.249903 162 6137ft 224kts
13-Jan-20 18:22 32.782658 -117.225479 158 6133ft 217kts
13-Jan-20 18:23 32.732007 -117.185985 129 6124ft 221kts
13-Jan-20 18:24 32.753462 -117.125092 60 6141ft 219kts
13-Jan-20 18:25 32.777088 -117.058606 98 6107ft 222kts
13-Jan-20 18:26 32.760223 -116.987778 106 5831ft 223kts
13-Jan-20 18:27 32.717272 -116.955289 194 4584ft 180kts
13-Jan-20 18:28 32.707590 -116.959577 210 4285ft 179kts
13-Jan-20 18:29 32.698905 -117.047044 286 2692ft 177kts
13-Jan-20 18:30 32.711838 -117.100151 286 1641ft 157kts
13-Jan-20 18:31 32.721694 -117.140747 287 890ft 92kts
13-Jan-20 18:32 32.728212 -117.167638 286 285ft 84kts
13-Jan-20 18:33 32.733698 -117.188167 13 15ft 16kts
13-Jan-20 18:34 32.734292 -117.183586 88 16ft 15kts
13-Jan-20 18:35 32.734071 -117.182803 149 16ft 0kts
13-Jan-20 18:36 32.734072 -117.182804 149 16ft 0kts

Navigation Log

Ident Type
Flight plan parsing failed, navigation log unavailable